sensor_id;sensor_type;location;lat;lon;timestamp;pressure;altitude;pressure_sealevel;temperature;humidity
6198;BME280;3132;42.622;23.328;2023-04-03T00:02:08;92197.38;;;6.82;85.51
6198;BME280;3132;42.622;23.328;2023-04-03T00:04:33;92182.56;;;6.88;84.99
6198;BME280;3132;42.622;23.328;2023-04-03T00:06:58;92194.25;;;6.85;84.96
6198;BME280;3132;42.622;23.328;2023-04-03T00:09:24;92165.84;;;6.55;85.55
6198;BME280;3132;42.622;23.328;2023-04-03T00:11:50;92161.66;;;6.64;85.30
6198;BME280;3132;42.622;23.328;2023-04-03T00:14:15;92161.66;;;6.64;85.50
6198;BME280;3132;42.622;23.328;2023-04-03T00:16:40;92141.47;;;6.46;86.70
6198;BME280;3132;42.622;23.328;2023-04-03T00:19:06;92179.78;;;6.69;86.87
6198;BME280;3132;42.622;23.328;2023-04-03T00:21:32;92180.06;;;6.63;86.57
6198;BME280;3132;42.622;23.328;2023-04-03T00:23:57;92170.47;;;6.63;86.39
6198;BME280;3132;42.622;23.328;2023-04-03T00:26:23;92172.06;;;6.54;87.09
6198;BME280;3132;42.622;23.328;2023-04-03T00:28:48;92169.47;;;6.54;87.20
6198;BME280;3132;42.622;23.328;2023-04-03T00:31:15;92168.69;;;6.53;86.99
6198;BME280;3132;42.622;23.328;2023-04-03T00:33:41;92129.38;;;6.26;87.29
6198;BME280;3132;42.622;23.328;2023-04-03T00:36:08;92166.41;;;6.37;87.54
6198;BME280;3132;42.622;23.328;2023-04-03T00:38:34;92150.34;;;6.35;87.74
6198;BME280;3132;42.622;23.328;2023-04-03T00:41:00;92182.69;;;6.47;87.43
6198;BME280;3132;42.622;23.328;2023-04-03T00:43:25;92179.34;;;6.37;88.00
6198;BME280;3132;42.622;23.328;2023-04-03T00:45:53;92175.22;;;6.26;88.42
6198;BME280;3132;42.622;23.328;2023-04-03T00:48:29;92169.56;;;6.19;88.42
6198;BME280;3132;42.622;23.328;2023-04-03T00:50:57;92171.63;;;6.22;88.71
6198;BME280;3132;42.622;23.328;2023-04-03T00:53:31;92159.72;;;6.11;89.18
6198;BME280;3132;42.622;23.328;2023-04-03T00:55:59;92182.47;;;6.34;88.44
6198;BME280;3132;42.622;23.328;2023-04-03T00:58:33;92174.22;;;6.27;87.92
6198;BME280;3132;42.622;23.328;2023-04-03T01:01:05;92165.41;;;6.23;87.60
6198;BME280;3132;42.622;23.328;2023-04-03T01:03:32;92186.59;;;6.50;87.36
6198;BME280;3132;42.622;23.328;2023-04-03T01:05:57;92179.34;;;6.42;87.44
6198;BME280;3132;42.622;23.328;2023-04-03T01:08:23;92180.63;;;6.49;86.76
6198;BME280;3132;42.622;23.328;2023-04-03T01:10:49;92186.81;;;6.58;85.94
6198;BME280;3132;42.622;23.328;2023-04-03T01:13:20;92180.34;;;6.56;85.61
6198;BME280;3132;42.622;23.328;2023-04-03T01:15:46;92180.56;;;6.65;85.90
6198;BME280;3132;42.622;23.328;2023-04-03T01:18:12;92182.94;;;6.56;86.57
6198;BME280;3132;42.622;23.328;2023-04-03T01:20:55;92181.69;;;6.43;86.74
6198;BME280;3132;42.622;23.328;2023-04-03T01:26:27;92175.75;;;6.33;87.11
6198;BME280;3132;42.622;23.328;2023-04-03T01:28:54;92180.16;;;6.32;86.93
6198;BME280;3132;42.622;23.328;2023-04-03T01:31:31;92182.47;;;6.34;86.46
6198;BME280;3132;42.622;23.328;2023-04-03T01:33:57;92176.00;;;6.36;87.04
6198;BME280;3132;42.622;23.328;2023-04-03T01:36:26;92174.97;;;6.27;87.30
6198;BME280;3132;42.622;23.328;2023-04-03T01:38:53;92184.28;;;6.38;87.06
6198;BME280;3132;42.622;23.328;2023-04-03T01:41:19;92174.41;;;6.50;86.44
6198;BME280;3132;42.622;23.328;2023-04-03T01:43:46;92150.91;;;6.22;86.68
6198;BME280;3132;42.622;23.328;2023-04-03T01:46:12;92173.63;;;6.45;86.35
6198;BME280;3132;42.622;23.328;2023-04-03T01:48:38;92177.25;;;6.54;86.48
6198;BME280;3132;42.622;23.328;2023-04-03T01:51:04;92179.34;;;6.47;86.98
6198;BME280;3132;42.622;23.328;2023-04-03T01:53:29;92175.47;;;6.39;87.13
6198;BME280;3132;42.622;23.328;2023-04-03T01:55:54;92177.81;;;6.41;87.40
6198;BME280;3132;42.622;23.328;2023-04-03T01:58:20;92171.63;;;6.22;88.31
6198;BME280;3132;42.622;23.328;2023-04-03T02:00:45;92187.16;;;6.27;88.27
6198;BME280;3132;42.622;23.328;2023-04-03T02:03:11;92148.34;;;6.02;88.15
6198;BME280;3132;42.622;23.328;2023-04-03T02:05:37;92160.78;;;6.00;89.30
6198;BME280;3132;42.622;23.328;2023-04-03T02:08:03;92182.78;;;6.07;88.74
6198;BME280;3132;42.622;23.328;2023-04-03T02:10:28;92176.06;;;6.11;89.13
6198;BME280;3132;42.622;23.328;2023-04-03T02:12:53;92178.91;;;5.95;90.49
6198;BME280;3132;42.622;23.328;2023-04-03T02:15:19;92184.63;;;5.92;90.78
6198;BME280;3132;42.622;23.328;2023-04-03T02:17:45;92171.69;;;5.82;90.14
6198;BME280;3132;42.622;23.328;2023-04-03T02:20:11;92185.66;;;5.76;91.41
6198;BME280;3132;42.622;23.328;2023-04-03T02:22:36;92182.00;;;5.77;91.61
6198;BME280;3132;42.622;23.328;2023-04-03T02:25:02;92182.28;;;5.80;91.39
6198;BME280;3132;42.622;23.328;2023-04-03T02:27:27;92175.28;;;5.86;90.64
6198;BME280;3132;42.622;23.328;2023-04-03T02:29:53;92178.38;;;5.78;90.28
6198;BME280;3132;42.622;23.328;2023-04-03T02:32:18;92174.22;;;5.72;90.72
6198;BME280;3132;42.622;23.328;2023-04-03T02:34:44;92147.56;;;5.36;93.22
6198;BME280;3132;42.622;23.328;2023-04-03T02:37:09;92148.84;;;5.44;92.84
6198;BME280;3132;42.622;23.328;2023-04-03T02:39:34;92150.66;;;5.43;93.20
6198;BME280;3132;42.622;23.328;2023-04-03T02:42:00;92168.03;;;5.58;92.70
6198;BME280;3132;42.622;23.328;2023-04-03T02:44:25;92165.94;;;5.50;92.40
6198;BME280;3132;42.622;23.328;2023-04-03T02:46:51;92164.91;;;5.41;92.71
6198;BME280;3132;42.622;23.328;2023-04-03T02:49:16;92145.75;;;5.32;92.56
6198;BME280;3132;42.622;23.328;2023-04-03T02:51:42;92147.81;;;5.35;93.00
6198;BME280;3132;42.622;23.328;2023-04-03T02:54:07;92122.97;;;5.09;93.20
6198;BME280;3132;42.622;23.328;2023-04-03T02:56:33;92156.88;;;5.27;93.30
6198;BME280;3132;42.622;23.328;2023-04-03T02:58:59;92151.97;;;5.26;94.42
6198;BME280;3132;42.622;23.328;2023-04-03T03:01:25;92129.69;;;5.15;93.88
6198;BME280;3132;42.622;23.328;2023-04-03T03:03:53;92141.06;;;5.24;93.58
6198;BME280;3132;42.622;23.328;2023-04-03T03:06:19;92142.09;;;5.28;93.13
6198;BME280;3132;42.622;23.328;2023-04-03T03:08:45;92112.63;;;5.14;93.83
6198;BME280;3132;42.622;23.328;2023-04-03T03:11:11;92131.50;;;5.24;93.08
6198;BME280;3132;42.622;23.328;2023-04-03T03:13:36;92103.56;;;5.11;93.19
6198;BME280;3132;42.622;23.328;2023-04-03T03:16:02;92126.09;;;5.26;92.98
6198;BME280;3132;42.622;23.328;2023-04-03T03:18:27;92132.81;;;5.32;93.58
6198;BME280;3132;42.622;23.328;2023-04-03T03:20:55;92135.66;;;5.30;93.25
6198;BME280;3132;42.622;23.328;2023-04-03T03:23:22;92135.91;;;5.29;94.15
6198;BME280;3132;42.622;23.328;2023-04-03T03:25:48;92133.31;;;5.29;93.95
6198;BME280;3132;42.622;23.328;2023-04-03T03:28:13;92129.97;;;5.33;93.56
6198;BME280;3132;42.622;23.328;2023-04-03T03:30:38;92128.94;;;5.29;93.99
6198;BME280;3132;42.622;23.328;2023-04-03T03:33:04;92123.75;;;5.19;93.75
6198;BME280;3132;42.622;23.328;2023-04-03T03:35:29;92135.66;;;5.40;93.29
6198;BME280;3132;42.622;23.328;2023-04-03T03:37:55;92145.75;;;5.37;93.52
6198;BME280;3132;42.622;23.328;2023-04-03T03:40:20;92142.91;;;5.33;93.89
6198;BME280;3132;42.622;23.328;2023-04-03T03:42:46;92119.34;;;5.20;94.51
6198;BME280;3132;42.622;23.328;2023-04-03T03:45:11;92115.72;;;5.21;93.68
6198;BME280;3132;42.622;23.328;2023-04-03T03:47:36;92106.94;;;5.17;93.63
6198;BME280;3132;42.622;23.328;2023-04-03T03:50:02;92130.50;;;5.35;94.20
6198;BME280;3132;42.622;23.328;2023-04-03T03:52:28;92140.56;;;5.27;93.90
6198;BME280;3132;42.622;23.328;2023-04-03T03:54:55;92139.00;;;5.36;94.12
6198;BME280;3132;42.622;23.328;2023-04-03T03:57:21;92147.81;;;5.35;94.80
6198;BME280;3132;42.622;23.328;2023-04-03T03:59:46;92118.06;;;5.27;93.82
6198;BME280;3132;42.622;23.328;2023-04-03T04:02:13;92135.66;;;5.30;94.99
6198;BME280;3132;42.622;23.328;2023-04-03T04:04:39;92114.97;;;5.30;94.57
6198;BME280;3132;42.622;23.328;2023-04-03T04:07:04;92126.34;;;5.39;94.09
6198;BME280;3132;42.622;23.328;2023-04-03T04:09:29;92112.09;;;5.27;94.12
6198;BME280;3132;42.622;23.328;2023-04-03T04:11:55;92133.31;;;5.29;93.68
6198;BME280;3132;42.622;23.328;2023-04-03T04:14:20;92139.03;;;5.46;93.32
6198;BME280;3132;42.622;23.328;2023-04-03T04:16:49;92151.72;;;5.47;93.37
6198;BME280;3132;42.622;23.328;2023-04-03T04:19:15;92123.47;;;5.36;93.18
6198;BME280;3132;42.622;23.328;2023-04-03T04:21:40;92154.03;;;5.69;92.92
6198;BME280;3132;42.622;23.328;2023-04-03T04:24:07;92144.19;;;5.66;92.56
6198;BME280;3132;42.622;23.328;2023-04-03T04:26:32;92154.06;;;5.89;92.29
6198;BME280;3132;42.622;23.328;2023-04-03T04:28:58;92137.47;;;5.80;92.33
6198;BME280;3132;42.622;23.328;2023-04-03T04:31:23;92153.00;;;5.95;92.60
6198;BME280;3132;42.622;23.328;2023-04-03T04:33:48;92132.06;;;5.86;91.58
6198;BME280;3132;42.622;23.328;2023-04-03T04:36:14;92156.88;;;6.22;92.76
6198;BME280;3132;42.622;23.328;2023-04-03T04:38:40;92152.97;;;6.15;91.17
6198;BME280;3132;42.622;23.328;2023-04-03T04:41:06;92150.41;;;6.10;91.41
6198;BME280;3132;42.622;23.328;2023-04-03T04:43:31;92161.47;;;6.30;90.38
6198;BME280;3132;42.622;23.328;2023-04-03T04:46:04;92164.06;;;6.45;89.88
6198;BME280;3132;42.622;23.328;2023-04-03T04:48:30;92171.03;;;6.45;90.14
6198;BME280;3132;42.622;23.328;2023-04-03T04:50:55;92157.06;;;6.41;91.22
6198;BME280;3132;42.622;23.328;2023-04-03T04:53:21;92178.56;;;6.51;90.92
6198;BME280;3132;42.622;23.328;2023-04-03T04:55:46;92129.34;;;6.36;90.44
6198;BME280;3132;42.622;23.328;2023-04-03T04:58:11;92149.72;;;6.63;89.71
6198;BME280;3132;42.622;23.328;2023-04-03T05:00:37;92167.59;;;6.65;90.31
6198;BME280;3132;42.622;23.328;2023-04-03T05:03:02;92162.19;;;6.56;90.19
6198;BME280;3132;42.622;23.328;2023-04-03T05:05:28;92189.66;;;6.72;90.53
6198;BME280;3132;42.622;23.328;2023-04-03T05:07:53;92190.13;;;6.79;90.02
6198;BME280;3132;42.622;23.328;2023-04-03T05:10:19;92188.53;;;6.88;89.47
6198;BME280;3132;42.622;23.328;2023-04-03T05:12:44;92178.47;;;6.82;90.00
6198;BME280;3132;42.622;23.328;2023-04-03T05:15:10;92191.88;;;6.99;89.73
6198;BME280;3132;42.622;23.328;2023-04-03T05:17:35;92202.88;;;7.24;88.61
6198;BME280;3132;42.622;23.328;2023-04-03T05:20:02;92204.13;;;7.37;87.93
6198;BME280;3132;42.622;23.328;2023-04-03T05:22:28;92202.47;;;7.51;87.89
6198;BME280;3132;42.622;23.328;2023-04-03T05:24:53;92141.28;;;7.35;86.77
6198;BME280;3132;42.622;23.328;2023-04-03T05:27:18;92211.63;;;7.82;86.88
6198;BME280;3132;42.622;23.328;2023-04-03T05:29:44;92215.47;;;7.89;85.95
6198;BME280;3132;42.622;23.328;2023-04-03T05:32:10;92215.13;;;8.01;86.36
6198;BME280;3132;42.622;23.328;2023-04-03T05:34:36;92201.72;;;8.17;85.57
6198;BME280;3132;42.622;23.328;2023-04-03T05:37:01;92201.00;;;8.41;84.13
6198;BME280;3132;42.622;23.328;2023-04-03T05:39:28;92193.22;;;8.41;82.18
6198;BME280;3132;42.622;23.328;2023-04-03T05:41:53;92198.38;;;8.46;82.22
6198;BME280;3132;42.622;23.328;2023-04-03T05:44:19;92207.75;;;8.47;81.08
6198;BME280;3132;42.622;23.328;2023-04-03T05:46:45;92199.03;;;8.33;81.94
6198;BME280;3132;42.622;23.328;2023-04-03T05:49:10;92199.28;;;7.97;84.58
6198;BME280;3132;42.622;23.328;2023-04-03T05:51:37;92199.31;;;8.55;82.75
6198;BME280;3132;42.622;23.328;2023-04-03T05:56:43;92157.91;;;8.82;80.27
6198;BME280;3132;42.622;23.328;2023-04-03T05:59:08;92179.91;;;8.71;80.10
6198;BME280;3132;42.622;23.328;2023-04-03T06:01:34;92177.13;;;8.86;80.06
6198;BME280;3132;42.622;23.328;2023-04-03T06:04:00;92172.69;;;9.28;78.98
6198;BME280;3132;42.622;23.328;2023-04-03T06:06:26;92187.97;;;8.93;79.90
6198;BME280;3132;42.622;23.328;2023-04-03T06:08:51;92172.63;;;9.15;79.10
6198;BME280;3132;42.622;23.328;2023-04-03T06:11:17;92176.69;;;8.79;80.06
6198;BME280;3132;42.622;23.328;2023-04-03T06:13:42;92178.84;;;9.14;80.04
6198;BME280;3132;42.622;23.328;2023-04-03T06:16:11;92157.84;;;9.47;78.86
6198;BME280;3132;42.622;23.328;2023-04-03T06:18:39;92173.22;;;9.81;78.93
6198;BME280;3132;42.622;23.328;2023-04-03T06:21:04;92169.00;;;9.85;78.06
6198;BME280;3132;42.622;23.328;2023-04-03T06:23:30;92165.28;;;9.91;75.82
6198;BME280;3132;42.622;23.328;2023-04-03T06:25:55;92186.34;;;10.13;74.94
6198;BME280;3132;42.622;23.328;2023-04-03T06:28:21;92188.16;;;10.13;75.34
6198;BME280;3132;42.622;23.328;2023-04-03T06:30:46;92192.09;;;10.10;74.88
6198;BME280;3132;42.622;23.328;2023-04-03T06:33:12;92196.94;;;10.17;74.32
6198;BME280;3132;42.622;23.328;2023-04-03T06:35:37;92205.41;;;10.09;74.01
6198;BME280;3132;42.622;23.328;2023-04-03T06:38:03;92216.78;;;9.99;75.38
6198;BME280;3132;42.622;23.328;2023-04-03T06:40:34;92208.44;;;9.97;76.27
6198;BME280;3132;42.622;23.328;2023-04-03T06:43:00;92206.88;;;9.96;74.33
6198;BME280;3132;42.622;23.328;2023-04-03T06:45:26;92201.13;;;9.62;75.56
6198;BME280;3132;42.622;23.328;2023-04-03T06:47:51;92201.63;;;9.82;73.91
6198;BME280;3132;42.622;23.328;2023-04-03T06:50:16;92195.22;;;9.56;74.60
6198;BME280;3132;42.622;23.328;2023-04-03T06:52:42;92205.75;;;9.28;77.35
6198;BME280;3132;42.622;23.328;2023-04-03T06:55:08;92208.03;;;9.53;75.89
6198;BME280;3132;42.622;23.328;2023-04-03T06:57:35;92188.75;;;9.54;75.34
6198;BME280;3132;42.622;23.328;2023-04-03T07:00:01;92200.66;;;9.78;74.58
6198;BME280;3132;42.622;23.328;2023-04-03T07:02:26;92218.03;;;9.83;74.36
6198;BME280;3132;42.622;23.328;2023-04-03T07:04:52;92218.75;;;10.07;74.71
6198;BME280;3132;42.622;23.328;2023-04-03T07:07:17;92206.81;;;10.20;74.19
6198;BME280;3132;42.622;23.328;2023-04-03T07:09:43;92191.66;;;10.03;74.35
6198;BME280;3132;42.622;23.328;2023-04-03T07:12:08;92204.84;;;10.12;74.48
6198;BME280;3132;42.622;23.328;2023-04-03T07:14:33;92200.44;;;10.26;73.88
6198;BME280;3132;42.622;23.328;2023-04-03T07:16:59;92201.66;;;10.33;73.35
6198;BME280;3132;42.622;23.328;2023-04-03T07:19:25;92195.28;;;10.39;73.93
6198;BME280;3132;42.622;23.328;2023-04-03T07:21:53;92185.63;;;10.08;75.09
6198;BME280;3132;42.622;23.328;2023-04-03T07:24:18;92202.38;;;10.66;72.61
6198;BME280;3132;42.622;23.328;2023-04-03T07:26:44;92181.63;;;10.88;72.24
6198;BME280;3132;42.622;23.328;2023-04-03T07:29:10;92198.81;;;11.16;71.40
6198;BME280;3132;42.622;23.328;2023-04-03T07:31:35;92183.72;;;10.99;72.68
6198;BME280;3132;42.622;23.328;2023-04-03T07:34:02;92176.41;;;10.88;71.61
6198;BME280;3132;42.622;23.328;2023-04-03T07:36:27;92158.91;;;10.16;74.10
6198;BME280;3132;42.622;23.328;2023-04-03T07:38:54;92160.88;;;11.18;71.66
6198;BME280;3132;42.622;23.328;2023-04-03T07:41:19;92161.44;;;11.29;70.79
6198;BME280;3132;42.622;23.328;2023-04-03T07:43:46;92163.97;;;11.34;71.70
6198;BME280;3132;42.622;23.328;2023-04-03T07:46:12;92149.13;;;11.43;69.84
6198;BME280;3132;42.622;23.328;2023-04-03T07:48:38;92171.59;;;11.30;70.45
6198;BME280;3132;42.622;23.328;2023-04-03T07:51:04;92169.53;;;11.68;68.87
6198;BME280;3132;42.622;23.328;2023-04-03T07:53:30;92165.31;;;11.31;69.74
6198;BME280;3132;42.622;23.328;2023-04-03T07:55:57;92150.97;;;11.43;69.42
6198;BME280;3132;42.622;23.328;2023-04-03T07:58:23;92170.34;;;11.42;68.96
6198;BME280;3132;42.622;23.328;2023-04-03T08:00:48;92141.22;;;11.34;69.01
6198;BME280;3132;42.622;23.328;2023-04-03T08:03:17;92179.31;;;11.49;68.28
6198;BME280;3132;42.622;23.328;2023-04-03T08:05:45;92177.69;;;11.39;68.19
6198;BME280;3132;42.622;23.328;2023-04-03T08:08:13;92176.44;;;11.37;67.84
6198;BME280;3132;42.622;23.328;2023-04-03T08:10:39;92175.72;;;11.59;68.21
6198;BME280;3132;42.622;23.328;2023-04-03T08:13:05;92167.78;;;11.64;68.11
6198;BME280;3132;42.622;23.328;2023-04-03T08:15:31;92173.28;;;11.98;66.65
6198;BME280;3132;42.622;23.328;2023-04-03T08:17:58;92172.09;;;12.04;66.88
6198;BME280;3132;42.622;23.328;2023-04-03T08:20:24;92170.31;;;12.13;66.50
6198;BME280;3132;42.622;23.328;2023-04-03T08:22:50;92176.13;;;12.10;65.40
6198;BME280;3132;42.622;23.328;2023-04-03T08:25:15;92135.63;;;11.63;66.88
6198;BME280;3132;42.622;23.328;2023-04-03T08:27:40;92169.06;;;11.88;66.93
6198;BME280;3132;42.622;23.328;2023-04-03T08:30:07;92169.84;;;11.89;67.21
6198;BME280;3132;42.622;23.328;2023-04-03T08:32:33;92161.50;;;11.87;67.78
6198;BME280;3132;42.622;23.328;2023-04-03T08:35:00;92151.47;;;12.02;67.29
6198;BME280;3132;42.622;23.328;2023-04-03T08:37:25;92129.16;;;12.05;66.57
6198;BME280;3132;42.622;23.328;2023-04-03T08:39:51;92107.06;;;12.11;66.84
6198;BME280;3132;42.622;23.328;2023-04-03T08:47:44;92143.22;;;12.70;64.86
6198;BME280;3132;42.622;23.328;2023-04-03T08:50:14;92150.22;;;12.52;65.89
6198;BME280;3132;42.622;23.328;2023-04-03T08:52:42;92146.28;;;12.72;66.24
6198;BME280;3132;42.622;23.328;2023-04-03T08:57:58;92144.91;;;13.05;63.76
6198;BME280;3132;42.622;23.328;2023-04-03T09:00:27;92138.22;;;13.38;62.19
6198;BME280;3132;42.622;23.328;2023-04-03T09:02:55;92140.19;;;13.33;61.85
6198;BME280;3132;42.622;23.328;2023-04-03T09:07:59;92122.94;;;13.32;59.10
6198;BME280;3132;42.622;23.328;2023-04-03T09:10:32;92141.00;;;13.67;59.22
6198;BME280;3132;42.622;23.328;2023-04-03T09:13:06;92139.91;;;13.51;59.86
6198;BME280;3132;42.622;23.328;2023-04-03T09:15:35;92132.22;;;13.72;58.81
6198;BME280;3132;42.622;23.328;2023-04-03T09:18:35;92132.81;;;13.52;55.88
6198;BME280;3132;42.622;23.328;2023-04-03T09:21:29;92130.81;;;13.49;56.28
6198;BME280;3132;42.622;23.328;2023-04-03T09:23:59;92109.06;;;13.40;54.52
6198;BME280;3132;42.622;23.328;2023-04-03T09:26:50;92131.13;;;13.73;54.28
6198;BME280;3132;42.622;23.328;2023-04-03T09:29:19;92131.13;;;13.81;54.73
6198;BME280;3132;42.622;23.328;2023-04-03T09:31:48;92130.84;;;13.91;53.63
6198;BME280;3132;42.622;23.328;2023-04-03T09:34:26;92124.03;;;13.73;55.45
6198;BME280;3132;42.622;23.328;2023-04-03T09:36:55;92128.34;;;13.86;55.61
6198;BME280;3132;42.622;23.328;2023-04-03T09:39:26;92119.41;;;13.53;56.88
6198;BME280;3132;42.622;23.328;2023-04-03T09:44:37;92109.66;;;13.79;54.28
6198;BME280;3132;42.622;23.328;2023-04-03T09:47:22;92108.56;;;14.14;54.72
6198;BME280;3132;42.622;23.328;2023-04-03T09:49:48;92102.69;;;14.17;51.99
6198;BME280;3132;42.622;23.328;2023-04-03T09:52:24;92103.31;;;14.14;52.87
6198;BME280;3132;42.622;23.328;2023-04-03T09:54:50;92086.97;;;14.00;51.02
6198;BME280;3132;42.622;23.328;2023-04-03T09:57:15;92104.28;;;13.84;51.97
6198;BME280;3132;42.622;23.328;2023-04-03T10:00:01;92107.66;;;13.59;52.42
6198;BME280;3132;42.622;23.328;2023-04-03T10:02:36;92099.50;;;13.44;53.68
6198;BME280;3132;42.622;23.328;2023-04-03T10:05:04;92099.16;;;13.28;56.87
6198;BME280;3132;42.622;23.328;2023-04-03T10:07:48;92096.34;;;13.08;56.68
6198;BME280;3132;42.622;23.328;2023-04-03T10:12:39;92088.69;;;12.72;59.10
6198;BME280;3132;42.622;23.328;2023-04-03T10:15:12;92095.25;;;12.52;58.03
6198;BME280;3132;42.622;23.328;2023-04-03T10:31:18;92076.81;;;13.22;56.88
6198;BME280;3132;42.622;23.328;2023-04-03T10:34:00;92072.47;;;13.01;57.22
6198;BME280;3132;42.622;23.328;2023-04-03T10:36:50;92066.63;;;12.64;61.46
6198;BME280;3132;42.622;23.328;2023-04-03T10:39:25;92066.97;;;12.80;58.97
6198;BME280;3132;42.622;23.328;2023-04-03T10:42:05;92067.03;;;12.88;59.26
6198;BME280;3132;42.622;23.328;2023-04-03T10:45:40;92048.16;;;12.69;58.77
6198;BME280;3132;42.622;23.328;2023-04-03T10:55:35;92047.03;;;12.53;61.67
6198;BME280;3132;42.622;23.328;2023-04-03T10:58:03;92048.69;;;12.41;65.43
6198;BME280;3132;42.622;23.328;2023-04-03T11:00:42;92043.19;;;12.51;65.11
6198;BME280;3132;42.622;23.328;2023-04-03T11:03:13;92049.34;;;12.55;65.21
6198;BME280;3132;42.622;23.328;2023-04-03T11:05:49;92057.97;;;12.55;67.33
6198;BME280;3132;42.622;23.328;2023-04-03T11:11:05;92057.25;;;11.94;72.38
6198;BME280;3132;42.622;23.328;2023-04-03T11:13:35;92044.81;;;11.69;74.87
6198;BME280;3132;42.622;23.328;2023-04-03T11:16:04;92046.53;;;11.60;77.86
6198;BME280;3132;42.622;23.328;2023-04-03T11:18:43;92054.63;;;11.50;82.41
6198;BME280;3132;42.622;23.328;2023-04-03T11:21:17;92054.66;;;11.14;86.43
6198;BME280;3132;42.622;23.328;2023-04-03T11:23:46;92044.63;;;11.07;88.40
6198;BME280;3132;42.622;23.328;2023-04-03T11:26:22;92043.44;;;11.13;88.43
6198;BME280;3132;42.622;23.328;2023-04-03T11:28:58;92051.66;;;11.07;90.20
6198;BME280;3132;42.622;23.328;2023-04-03T11:36:43;92044.47;;;10.90;94.67
6198;BME280;3132;42.622;23.328;2023-04-03T11:39:24;92044.22;;;11.00;94.61
6198;BME280;3132;42.622;23.328;2023-04-03T11:41:51;92046.69;;;10.97;94.17
6198;BME280;3132;42.622;23.328;2023-04-03T11:44:33;92041.38;;;10.88;93.00
6198;BME280;3132;42.622;23.328;2023-04-03T11:47:00;92044.66;;;10.80;93.66
6198;BME280;3132;42.622;23.328;2023-04-03T11:50:04;92041.97;;;10.72;94.56
6198;BME280;3132;42.622;23.328;2023-04-03T12:16:24;92047.22;;;10.18;100.00
6198;BME280;3132;42.622;23.328;2023-04-03T12:21:22;92023.53;;;10.01;100.00
6198;BME280;3132;42.622;23.328;2023-04-03T12:40:00;92013.59;;;9.25;100.00
6198;BME280;3132;42.622;23.328;2023-04-03T12:45:17;92006.31;;;9.40;100.00
6198;BME280;3132;42.622;23.328;2023-04-03T12:47:44;91986.34;;;9.36;100.00
6198;BME280;3132;42.622;23.328;2023-04-03T12:50:20;91993.88;;;9.05;100.00
6198;BME280;3132;42.622;23.328;2023-04-03T12:52:59;91985.84;;;9.34;100.00
6198;BME280;3132;42.622;23.328;2023-04-03T12:55:26;91986.25;;;9.41;100.00
6198;BME280;3132;42.622;23.328;2023-04-03T12:57:52;91954.91;;;9.14;100.00
6198;BME280;3132;42.622;23.328;2023-04-03T13:00:34;91987.81;;;9.10;100.00
6198;BME280;3132;42.622;23.328;2023-04-03T13:03:03;91994.38;;;9.07;100.00
6198;BME280;3132;42.622;23.328;2023-04-03T13:05:31;91994.38;;;9.07;100.00
6198;BME280;3132;42.622;23.328;2023-04-03T13:08:02;91991.63;;;8.80;100.00
6198;BME280;3132;42.622;23.328;2023-04-03T13:10:29;91984.94;;;8.93;100.00
6198;BME280;3132;42.622;23.328;2023-04-03T13:13:07;91989.38;;;8.74;100.00
6198;BME280;3132;42.622;23.328;2023-04-03T13:15:46;91986.38;;;8.67;100.00
6198;BME280;3132;42.622;23.328;2023-04-03T13:18:32;91992.41;;;8.81;100.00
6198;BME280;3132;42.622;23.328;2023-04-03T13:21:05;91987.63;;;8.51;100.00
6198;BME280;3132;42.622;23.328;2023-04-03T13:23:35;91985.38;;;8.63;100.00
6198;BME280;3132;42.622;23.328;2023-04-03T13:26:03;91965.28;;;8.50;100.00
6198;BME280;3132;42.622;23.328;2023-04-03T13:28:31;91963.31;;;8.42;100.00
6198;BME280;3132;42.622;23.328;2023-04-03T13:33:31;91954.31;;;8.53;100.00
6198;BME280;3132;42.622;23.328;2023-04-03T13:36:04;91972.31;;;8.49;100.00
6198;BME280;3132;42.622;23.328;2023-04-03T13:38:32;91971.72;;;8.34;100.00
6198;BME280;3132;42.622;23.328;2023-04-03T13:41:27;91978.19;;;8.12;100.00
6198;BME280;3132;42.622;23.328;2023-04-03T13:43:54;91932.81;;;7.81;100.00
6198;BME280;3132;42.622;23.328;2023-04-03T13:48:48;91968.22;;;8.25;100.00
6198;BME280;3132;42.622;23.328;2023-04-03T13:54:00;91949.41;;;8.09;100.00
6198;BME280;3132;42.622;23.328;2023-04-03T13:56:38;91941.31;;;8.10;100.00
6198;BME280;3132;42.622;23.328;2023-04-03T14:02:09;91956.75;;;8.02;100.00
6198;BME280;3132;42.622;23.328;2023-04-03T14:04:48;91947.94;;;7.79;100.00
6198;BME280;3132;42.622;23.328;2023-04-03T14:07:15;91947.63;;;8.04;100.00
6198;BME280;3132;42.622;23.328;2023-04-03T14:09:42;91955.63;;;8.32;100.00
6198;BME280;3132;42.622;23.328;2023-04-03T14:12:35;91952.00;;;8.33;100.00
6198;BME280;3132;42.622;23.328;2023-04-03T14:15:04;91954.44;;;8.19;100.00
6198;BME280;3132;42.622;23.328;2023-04-03T14:17:32;91935.44;;;8.24;100.00
6198;BME280;3132;42.622;23.328;2023-04-03T14:19:58;91957.66;;;8.35;100.00
6198;BME280;3132;42.622;23.328;2023-04-03T14:22:26;91947.25;;;8.35;100.00
6198;BME280;3132;42.622;23.328;2023-04-03T14:24:53;91945.84;;;8.00;100.00
6198;BME280;3132;42.622;23.328;2023-04-03T14:27:25;91951.47;;;8.31;100.00
6198;BME280;3132;42.622;23.328;2023-04-03T14:29:53;91935.97;;;8.20;100.00
6198;BME280;3132;42.622;23.328;2023-04-03T14:32:23;91946.13;;;8.41;100.00
6198;BME280;3132;42.622;23.328;2023-04-03T14:34:50;91944.88;;;8.38;100.00
6198;BME280;3132;42.622;23.328;2023-04-03T14:37:19;91943.03;;;8.20;100.00
6198;BME280;3132;42.622;23.328;2023-04-03T14:39:46;91948.97;;;8.20;100.00
6198;BME280;3132;42.622;23.328;2023-04-03T14:42:13;91945.22;;;8.50;100.00
6198;BME280;3132;42.622;23.328;2023-04-03T14:44:39;91933.22;;;8.36;100.00
6198;BME280;3132;42.622;23.328;2023-04-03T14:47:10;91911.25;;;8.04;100.00
6198;BME280;3132;42.622;23.328;2023-04-03T14:49:35;91939.84;;;8.04;100.00
6198;BME280;3132;42.622;23.328;2023-04-03T14:52:00;91949.41;;;8.09;100.00
6198;BME280;3132;42.622;23.328;2023-04-03T14:54:26;91946.28;;;8.07;100.00
6198;BME280;3132;42.622;23.328;2023-04-03T14:56:54;91927.94;;;7.98;100.00
6198;BME280;3132;42.622;23.328;2023-04-03T14:59:20;91931.09;;;7.95;100.00
6198;BME280;3132;42.622;23.328;2023-04-03T15:01:47;91926.97;;;7.94;100.00
6198;BME280;3132;42.622;23.328;2023-04-03T15:04:17;91917.09;;;7.73;100.00
6198;BME280;3132;42.622;23.328;2023-04-03T15:06:43;91916.56;;;7.94;100.00
6198;BME280;3132;42.622;23.328;2023-04-03T15:11:40;91915.09;;;8.07;100.00
6198;BME280;3132;42.622;23.328;2023-04-03T15:14:05;91916.88;;;8.11;100.00